Time;durP1;ratioP1;P1;durP2;ratioP2;P2;SDS_P1;SDS_P2;PMS_P1;PMS_P2;Temp;Humidity;BMP_temperature;BMP_pressure;BME280_temperature;BME280_humidity;BME280_pressure;Samples;Min_cycle;Max_cycle;Signal;HPM_P1;HPM_P2
2023/10/09 00:01:04;;;;;;;2.23;1.50;;;;;;;;;;5094915;28;20786;-58
2023/10/09 00:03:31;;;;;;;1.60;1.50;;;;;;;;;;5095268;28;20798;-58
2023/10/09 00:05:58;;;;;;;1.50;1.40;;;;;;;;;;5095067;28;20438;-58
2023/10/09 00:08:30;;;;;;;2.30;2.10;;;;;;;;;;5094946;28;20486;-58
2023/10/09 00:10:59;;;;;;;1.40;1.30;;;;;;;;;;5095201;28;20447;-58
2023/10/09 00:13:30;;;;;;;3.90;1.53;;;;;;;;;;5094995;28;20481;-58
2023/10/09 00:16:00;;;;;;;1.80;1.70;;;;;;;;;;5095010;28;20447;-58
2023/10/09 00:18:29;;;;;;;1.70;1.60;;;;;;;;;;5094855;28;20443;-58
2023/10/09 00:21:00;;;;;;;2.13;1.40;;;;;;;;;;5094742;28;21020;-59
2023/10/09 00:23:31;;;;;;;1.70;1.40;;;;;;;;;;5094995;28;20443;-58
2023/10/09 00:26:16;;;;;;;1.50;1.40;;;;;;;;;;5094843;28;20530;-58
2023/10/09 00:28:44;;;;;;;1.50;1.40;;;;;;;;;;5094637;28;20529;-58
2023/10/09 00:31:14;;;;;;;1.60;1.50;;;;;;;;;;5094847;28;20453;-56
2023/10/09 00:33:42;;;;;;;2.10;1.93;;;;;;;;;;5094731;28;20872;-58
2023/10/09 00:36:09;;;;;;;2.23;1.60;;;;;;;;;;5094698;28;20508;-58
2023/10/09 00:38:39;;;;;;;1.50;1.40;;;;;;;;;;5094705;28;20489;-58
2023/10/09 00:41:11;;;;;;;2.03;1.83;;;;;;;;;;5094573;28;20475;-58
2023/10/09 00:43:42;;;;;;;2.43;1.50;;;;;;;;;;5094715;28;20450;-58
2023/10/09 00:46:23;;;;;;;1.60;1.50;;;;;;;;;;5094607;28;20445;-57
2023/10/09 00:48:51;;;;;;;1.83;1.60;;;;;;;;;;5094444;28;20775;-56
2023/10/09 00:51:18;;;;;;;3.10;1.90;;;;;;;;;;5094369;28;20443;-57
2023/10/09 00:53:50;;;;;;;2.93;1.60;;;;;;;;;;5094170;28;20478;-57
2023/10/09 00:56:28;;;;;;;2.00;1.50;;;;;;;;;;5094460;28;20447;-59
2023/10/09 00:58:59;;;;;;;2.17;1.80;;;;;;;;;;5094323;28;20447;-56
2023/10/09 01:01:28;;;;;;;7.83;1.47;;;;;;;;;;5094249;28;20529;-56
2023/10/09 01:03:56;;;;;;;2.03;1.57;;;;;;;;;;5094068;28;20450;-58
2023/10/09 01:06:27;;;;;;;6.23;2.00;;;;;;;;;;5094237;28;20512;-58
2023/10/09 01:09:09;;;;;;;1.63;1.53;;;;;;;;;;5093788;28;20555;-57
2023/10/09 01:11:47;;;;;;;2.10;1.50;;;;;;;;;;5094082;28;20446;-58
2023/10/09 01:14:14;;;;;;;1.93;1.80;;;;;;;;;;5093232;28;20481;-57
2023/10/09 01:16:42;;;;;;;1.40;1.30;;;;;;;;;;5093796;28;20447;-57
2023/10/09 01:19:19;;;;;;;1.77;1.67;;;;;;;;;;5093984;28;20442;-57
2023/10/09 01:21:46;;;;;;;3.87;1.90;;;;;;;;;;5094020;28;20977;-56
2023/10/09 01:24:15;;;;;;;1.93;1.77;;;;;;;;;;5093783;28;20454;-56
2023/10/09 01:26:46;;;;;;;1.90;1.50;;;;;;;;;;5093699;28;20941;-57
2023/10/09 01:29:16;;;;;;;5.63;1.87;;;;;;;;;;5093619;28;20450;-57
2023/10/09 01:31:50;;;;;;;2.77;1.63;;;;;;;;;;5093796;28;20447;-57
2023/10/09 01:34:18;;;;;;;3.30;2.10;;;;;;;;;;5093627;28;20527;-57
2023/10/09 01:36:48;;;;;;;2.83;2.07;;;;;;;;;;5093652;28;20453;-57
2023/10/09 01:39:26;;;;;;;1.80;1.57;;;;;;;;;;5093652;28;20453;-58
2023/10/09 01:41:58;;;;;;;1.90;1.77;;;;;;;;;;5093721;28;20438;-57
2023/10/09 01:44:25;;;;;;;1.93;1.67;;;;;;;;;;5093642;28;20446;-56
2023/10/09 01:46:54;;;;;;;3.00;1.60;;;;;;;;;;5093309;28;20442;-58
2023/10/09 01:49:29;;;;;;;5.57;1.70;;;;;;;;;;5093396;28;20438;-58
2023/10/09 01:51:58;;;;;;;1.70;1.60;;;;;;;;;;5093285;28;20442;-58
2023/10/09 01:54:36;;;;;;;2.43;1.80;;;;;;;;;;5093114;28;20517;-57
2023/10/09 01:57:05;;;;;;;2.00;1.50;;;;;;;;;;5093400;28;20535;-56
2023/10/09 01:59:32;;;;;;;2.23;1.50;;;;;;;;;;5093260;28;20451;-57
2023/10/09 02:02:00;;;;;;;2.07;1.60;;;;;;;;;;5093223;28;20455;-57
2023/10/09 02:04:29;;;;;;;2.30;1.60;;;;;;;;;;5093121;28;20442;-58
2023/10/09 02:06:55;;;;;;;2.07;1.57;;;;;;;;;;5093155;28;20471;-57
2023/10/09 02:09:31;;;;;;;2.53;2.10;;;;;;;;;;5093278;28;20542;-58
2023/10/09 02:12:00;;;;;;;1.50;1.40;;;;;;;;;;5093201;28;20442;-57
2023/10/09 02:14:27;;;;;;;2.10;1.67;;;;;;;;;;5092906;28;21071;-58
2023/10/09 02:17:07;;;;;;;3.13;1.87;;;;;;;;;;5093193;28;20533;-57
2023/10/09 02:19:34;;;;;;;2.63;1.93;;;;;;;;;;5093172;28;20801;-58
2023/10/09 02:22:12;;;;;;;4.00;2.13;;;;;;;;;;5093136;28;20795;-57
2023/10/09 02:24:51;;;;;;;2.23;1.83;;;;;;;;;;5095181;28;20449;-57
2023/10/09 02:30:15;;;;;;;3.10;1.93;;;;;;;;;;5097131;28;20437;-57
2023/10/09 02:32:42;;;;;;;4.10;1.87;;;;;;;;;;5097154;28;20438;-58
2023/10/09 02:35:19;;;;;;;2.70;2.07;;;;;;;;;;5096935;28;20992;-57
2023/10/09 02:37:47;;;;;;;2.80;1.80;;;;;;;;;;5096894;28;20482;-57
2023/10/09 02:40:22;;;;;;;2.27;2.07;;;;;;;;;;5097134;28;20930;-57
2023/10/09 02:42:51;;;;;;;2.87;1.97;;;;;;;;;;5097048;28;20453;-57
2023/10/09 02:45:18;;;;;;;3.80;2.10;;;;;;;;;;5096879;28;20470;-57
2023/10/09 02:47:48;;;;;;;2.87;1.97;;;;;;;;;;5096802;28;20449;-57
2023/10/09 02:50:21;;;;;;;2.40;1.70;;;;;;;;;;5096658;28;20489;-58
2023/10/09 02:52:52;;;;;;;3.97;2.57;;;;;;;;;;5096905;28;20456;-57
2023/10/09 02:55:25;;;;;;;4.33;2.17;;;;;;;;;;5096455;28;21060;-56
2023/10/09 02:58:05;;;;;;;3.40;2.57;;;;;;;;;;5096628;28;20496;-57
2023/10/09 03:00:32;;;;;;;3.93;2.40;;;;;;;;;;5096550;28;20453;-57
2023/10/09 03:02:59;;;;;;;3.60;2.20;;;;;;;;;;5096363;28;20805;-56
2023/10/09 03:05:28;;;;;;;3.33;1.97;;;;;;;;;;5096671;28;20473;-58
2023/10/09 03:07:55;;;;;;;2.03;1.87;;;;;;;;;;5096232;28;20527;-57
2023/10/09 03:10:25;;;;;;;6.33;2.80;;;;;;;;;;5096289;28;20442;-58
2023/10/09 03:12:54;;;;;;;2.13;1.93;;;;;;;;;;5096287;28;20546;-57
2023/10/09 03:15:21;;;;;;;2.33;2.07;;;;;;;;;;5096057;28;20482;-57
2023/10/09 03:17:48;;;;;;;1.93;1.83;;;;;;;;;;5096390;28;21024;-56
2023/10/09 03:20:17;;;;;;;4.60;2.63;;;;;;;;;;5096270;28;20810;-58
2023/10/09 03:22:45;;;;;;;5.13;2.67;;;;;;;;;;5096179;28;20500;-57
2023/10/09 03:25:12;;;;;;;3.17;2.40;;;;;;;;;;5096075;28;20452;-57
2023/10/09 03:27:41;;;;;;;3.00;2.60;;;;;;;;;;5096049;28;20537;-57
2023/10/09 03:30:16;;;;;;;2.60;2.40;;;;;;;;;;5095894;28;20442;-57
2023/10/09 03:32:43;;;;;;;2.47;2.23;;;;;;;;;;5096085;28;20441;-57
2023/10/09 03:35:14;;;;;;;3.63;3.27;;;;;;;;;;5095454;28;20478;-58
2023/10/09 03:37:41;;;;;;;2.50;2.30;;;;;;;;;;5095620;28;20507;-57
2023/10/09 03:40:15;;;;;;;3.93;3.17;;;;;;;;;;5095737;28;20537;-57
2023/10/09 03:42:42;;;;;;;3.93;2.73;;;;;;;;;;5095728;28;20438;-58
2023/10/09 03:45:12;;;;;;;3.20;2.90;;;;;;;;;;5095908;28;20453;-57
2023/10/09 03:47:42;;;;;;;3.07;2.80;;;;;;;;;;5095979;28;20933;-58
2023/10/09 03:50:26;;;;;;;2.60;2.40;;;;;;;;;;5095541;28;20442;-58
2023/10/09 03:52:53;;;;;;;2.90;2.67;;;;;;;;;;5095449;28;20451;-59
2023/10/09 03:55:21;;;;;;;1.93;1.83;;;;;;;;;;5095569;28;20504;-57
2023/10/09 03:57:48;;;;;;;3.50;2.87;;;;;;;;;;5095619;28;20446;-58
2023/10/09 04:00:28;;;;;;;3.03;2.83;;;;;;;;;;5095397;28;20454;-57
2023/10/09 04:02:55;;;;;;;5.70;2.80;;;;;;;;;;5095354;28;20481;-56
2023/10/09 04:05:22;;;;;;;2.77;2.57;;;;;;;;;;5095249;28;20529;-58
2023/10/09 04:07:50;;;;;;;5.00;2.70;;;;;;;;;;5095159;28;20807;-58
2023/10/09 04:10:43;;;;;;;3.30;3.00;;;;;;;;;;5095306;28;20450;-57
2023/10/09 04:13:16;;;;;;;7.50;3.17;;;;;;;;;;5095190;28;20505;-56
2023/10/09 04:15:45;;;;;;;3.03;2.83;;;;;;;;;;5094951;28;20767;-58
2023/10/09 04:18:16;;;;;;;5.10;3.03;;;;;;;;;;5095446;28;20538;-58
2023/10/09 04:23:35;;;;;;;3.40;2.93;;;;;;;;;;5094993;28;20442;-59
2023/10/09 04:26:10;;;;;;;5.33;3.10;;;;;;;;;;5094821;28;20446;-58
2023/10/09 04:28:37;;;;;;;3.10;2.90;;;;;;;;;;5095030;28;20447;-59
2023/10/09 04:31:07;;;;;;;3.60;3.17;;;;;;;;;;5094806;28;20499;-59
2023/10/09 04:33:53;;;;;;;4.43;3.23;;;;;;;;;;5094809;28;20808;-58
2023/10/09 04:36:22;;;;;;;3.23;2.80;;;;;;;;;;5094567;28;20518;-59
2023/10/09 04:39:15;;;;;;;3.37;3.10;;;;;;;;;;5094488;28;20450;-58
2023/10/09 04:41:52;;;;;;;3.37;3.07;;;;;;;;;;5094703;28;20439;-57
2023/10/09 04:44:18;;;;;;;3.83;3.53;;;;;;;;;;5094596;28;20461;-59
2023/10/09 04:47:18;;;;;;;5.20;3.50;;;;;;;;;;5094214;28;20954;-59
2023/10/09 04:49:49;;;;;;;3.97;3.10;;;;;;;;;;5093849;28;20949;-59
2023/10/09 04:52:19;;;;;;;3.93;3.40;;;;;;;;;;5094389;28;20442;-55
2023/10/09 04:57:28;;;;;;;3.53;3.23;;;;;;;;;;5094014;28;20447;-59
2023/10/09 04:59:58;;;;;;;4.67;4.27;;;;;;;;;;5094095;28;20942;-58
2023/10/09 05:02:36;;;;;;;4.60;4.20;;;;;;;;;;5093939;28;20933;-58
2023/10/09 05:05:47;;;;;;;4.30;3.90;;;;;;;;;;5094164;28;20442;-58
2023/10/09 05:08:18;;;;;;;4.20;3.90;;;;;;;;;;5093746;28;20458;-58
2023/10/09 05:11:05;;;;;;;5.67;3.57;;;;;;;;;;5094074;28;20457;-59
2023/10/09 05:13:42;;;;;;;4.63;3.67;;;;;;;;;;5093795;28;20449;-59
2023/10/09 05:16:18;;;;;;;4.93;4.53;;;;;;;;;;5093650;28;20478;-58
2023/10/09 05:18:55;;;;;;;5.67;4.90;;;;;;;;;;5094059;28;20450;-59
2023/10/09 05:21:44;;;;;;;4.53;4.13;;;;;;;;;;5094035;28;20446;-59
2023/10/09 05:24:19;;;;;;;3.83;3.53;;;;;;;;;;5093792;28;20945;-58
2023/10/09 05:26:51;;;;;;;4.40;4.00;;;;;;;;;;5093605;28;20442;-57
2023/10/09 05:29:24;;;;;;;4.23;3.93;;;;;;;;;;5093784;28;20450;-58
2023/10/09 05:31:57;;;;;;;4.00;3.70;;;;;;;;;;5093710;28;20447;-58
2023/10/09 05:34:33;;;;;;;5.80;4.30;;;;;;;;;;5093511;28;20443;-58
2023/10/09 05:37:16;;;;;;;4.37;3.83;;;;;;;;;;5093373;28;20809;-58
2023/10/09 05:39:43;;;;;;;3.90;3.60;;;;;;;;;;5093564;28;20446;-59
2023/10/09 05:42:16;;;;;;;3.67;3.47;;;;;;;;;;5093503;28;20482;-58
2023/10/09 05:45:44;;;;;;;4.13;3.73;;;;;;;;;;5093424;28;20446;-59
2023/10/09 05:47:53;;;;;;;6.73;5.63;;;;;;;;;;5093145;28;20570;-59
2023/10/09 05:50:34;;;;;;;4.17;3.77;;;;;;;;;;5093474;28;20441;-58
2023/10/09 05:53:26;;;;;;;3.90;3.70;;;;;;;;;;5093260;28;20806;-59
2023/10/09 06:01:05;;;;;;;4.10;3.70;;;;;;;;;;5061389;28;20442;-58
2023/10/09 06:04:16;;;;;;;4.00;3.70;;;;;;;;;;5093016;28;20429;-58
2023/10/09 06:06:45;;;;;;;3.83;3.50;;;;;;;;;;5093094;28;20455;-58
2023/10/09 06:09:49;;;;;;;3.80;3.50;;;;;;;;;;5093191;28;20461;-57
2023/10/09 06:12:33;;;;;;;3.57;3.23;;;;;;;;;;5092809;28;20461;-59
2023/10/09 06:15:18;;;;;;;3.93;3.63;;;;;;;;;;5093063;28;20940;-58
2023/10/09 06:17:50;;;;;;;4.27;3.87;;;;;;;;;;5093035;28;20439;-58
2023/10/09 06:23:15;;;;;;;3.20;2.90;;;;;;;;;;5092907;28;20798;-59
2023/10/09 06:25:50;;;;;;;2.93;2.70;;;;;;;;;;5093032;28;20964;-58
2023/10/09 06:28:18;;;;;;;3.50;3.17;;;;;;;;;;5092945;28;20462;-59
2023/10/09 06:30:47;;;;;;;3.40;3.13;;;;;;;;;;5092821;28;20857;-57
2023/10/09 06:33:29;;;;;;;4.43;4.03;;;;;;;;;;5092678;28;20847;-58
2023/10/09 06:35:55;;;;;;;3.37;3.07;;;;;;;;;;5092800;28;20482;-58
2023/10/09 06:38:23;;;;;;;3.20;2.90;;;;;;;;;;5092884;28;20446;-59
2023/10/09 06:41:34;;;;;;;3.63;2.87;;;;;;;;;;5092784;28;20442;-58
2023/10/09 06:43:53;;;;;;;3.33;2.93;;;;;;;;;;5092424;28;20949;-58
2023/10/09 06:46:43;;;;;;;2.83;2.60;;;;;;;;;;5092902;28;20446;-60
2023/10/09 06:52:15;;;;;;;4.30;3.40;;;;;;;;;;5055934;28;20435;-59
2023/10/09 06:54:49;;;;;;;3.90;3.60;;;;;;;;;;5092623;28;20521;-58
2023/10/09 06:57:43;;;;;;;3.47;3.23;;;;;;;;;;5092726;28;20540;-58
2023/10/09 07:02:49;;;;;;;6.50;3.37;;;;;;;;;;5097991;28;20446;-58
2023/10/09 07:05:17;;;;;;;4.03;3.73;;;;;;;;;;5092576;28;20469;-57
2023/10/09 07:07:54;;;;;;;4.37;4.07;;;;;;;;;;5092438;28;20470;-59
2023/10/09 07:10:32;;;;;;;4.00;3.53;;;;;;;;;;5092433;28;20452;-59
2023/10/09 07:13:01;;;;;;;4.30;3.93;;;;;;;;;;5096174;28;20938;-56
2023/10/09 07:18:40;;;;;;;5.67;4.40;;;;;;;;;;5096219;28;20986;-58
2023/10/09 07:21:11;;;;;;;4.40;3.93;;;;;;;;;;5095993;28;20441;-59
2023/10/09 07:23:48;;;;;;;4.40;3.60;;;;;;;;;;5095827;28;20924;-58
2023/10/09 07:26:23;;;;;;;4.37;4.07;;;;;;;;;;5096144;28;20438;-59
2023/10/09 07:28:50;;;;;;;4.30;3.93;;;;;;;;;;5095921;28;20449;-59
2023/10/09 07:31:24;;;;;;;4.97;3.77;;;;;;;;;;5095891;28;20541;-58
2023/10/09 07:33:57;;;;;;;3.77;3.50;;;;;;;;;;5095758;28;20453;-58
2023/10/09 07:36:34;;;;;;;5.53;4.00;;;;;;;;;;5095907;28;20486;-58
2023/10/09 07:39:01;;;;;;;4.00;3.50;;;;;;;;;;5095811;28;20446;-58
2023/10/09 07:41:44;;;;;;;4.57;4.20;;;;;;;;;;5095701;28;20485;-57
2023/10/09 07:44:33;;;;;;;4.30;4.00;;;;;;;;;;5095583;28;20779;-58
2023/10/09 07:47:16;;;;;;;4.87;4.47;;;;;;;;;;5095680;28;20445;-58
2023/10/09 07:49:48;;;;;;;4.37;3.97;;;;;;;;;;5095529;28;21013;-58
2023/10/09 07:52:15;;;;;;;5.50;4.67;;;;;;;;;;5095498;28;20499;-58
2023/10/09 07:54:49;;;;;;;5.90;4.50;;;;;;;;;;5095396;28;20450;-56
2023/10/09 07:57:18;;;;;;;4.57;4.27;;;;;;;;;;5095400;28;20928;-58
2023/10/09 07:59:54;;;;;;;4.97;4.03;;;;;;;;;;5095287;28;20938;-58
2023/10/09 08:02:31;;;;;;;5.37;4.37;;;;;;;;;;5095360;28;20438;-59
2023/10/09 08:05:03;;;;;;;5.30;4.87;;;;;;;;;;5095191;28;20800;-58
2023/10/09 08:07:35;;;;;;;5.73;5.07;;;;;;;;;;5095147;28;20506;-58
2023/10/09 08:12:58;;;;;;;4.77;4.37;;;;;;;;;;5095157;28;20965;-58
2023/10/09 08:15:28;;;;;;;4.90;4.50;;;;;;;;;;5094861;28;20996;-58
2023/10/09 08:17:58;;;;;;;5.70;5.20;;;;;;;;;;5095176;28;20510;-59
2023/10/09 08:20:26;;;;;;;5.13;4.63;;;;;;;;;;5095076;28;20809;-59
2023/10/09 08:22:55;;;;;;;4.97;4.60;;;;;;;;;;5094667;28;20500;-58
2023/10/09 08:25:29;;;;;;;4.90;4.50;;;;;;;;;;5094901;28;20486;-58
2023/10/09 08:27:58;;;;;;;4.67;4.33;;;;;;;;;;5094746;28;20447;-57
2023/10/09 08:30:50;;;;;;;4.80;4.30;;;;;;;;;;5094878;28;20524;-59
2023/10/09 08:33:40;;;;;;;4.97;4.60;;;;;;;;;;5094746;28;20530;-58
2023/10/09 08:36:09;;;;;;;4.80;4.10;;;;;;;;;;5094508;28;20481;-59
2023/10/09 08:38:42;;;;;;;5.20;4.73;;;;;;;;;;5094604;28;20443;-62
2023/10/09 08:41:17;;;;;;;5.00;4.47;;;;;;;;;;5094593;28;20443;-57
2023/10/09 08:43:50;;;;;;;4.90;4.50;;;;;;;;;;5094375;28;20476;-58
2023/10/09 08:46:18;;;;;;;4.97;4.47;;;;;;;;;;5094365;28;20787;-58
2023/10/09 08:48:45;;;;;;;4.67;4.20;;;;;;;;;;5094241;28;20477;-58
2023/10/09 08:51:12;;;;;;;5.60;5.10;;;;;;;;;;5094417;28;20511;-59
2023/10/09 08:53:42;;;;;;;5.30;4.90;;;;;;;;;;5094359;28;20748;-58
2023/10/09 08:56:10;;;;;;;6.33;4.80;;;;;;;;;;5094253;28;20589;-58
2023/10/09 08:58:38;;;;;;;5.93;4.80;;;;;;;;;;5094067;28;20446;-56
2023/10/09 09:01:06;;;;;;;7.23;5.07;;;;;;;;;;5094065;28;20443;-59
2023/10/09 09:03:39;;;;;;;4.70;4.30;;;;;;;;;;5094028;28;20438;-59
2023/10/09 09:06:06;;;;;;;5.13;4.57;;;;;;;;;;5094217;28;20553;-58
2023/10/09 09:08:36;;;;;;;4.90;4.60;;;;;;;;;;5093850;28;20474;-58
2023/10/09 09:11:11;;;;;;;7.37;4.60;;;;;;;;;;5093955;28;20534;-58
2023/10/09 09:13:41;;;;;;;7.20;4.67;;;;;;;;;;5093821;28;20531;-59
2023/10/09 09:16:14;;;;;;;5.13;4.63;;;;;;;;;;5093913;28;20565;-59
2023/10/09 09:18:51;;;;;;;5.20;3.57;;;;;;;;;;5093827;28;20450;-58
2023/10/09 09:21:22;;;;;;;5.17;4.77;;;;;;;;;;5093704;28;20442;-58
2023/10/09 09:23:55;;;;;;;5.43;5.00;;;;;;;;;;5093681;28;20447;-57
2023/10/09 09:26:36;;;;;;;5.27;4.33;;;;;;;;;;5093630;28;21331;-59
2023/10/09 09:29:05;;;;;;;4.50;4.17;;;;;;;;;;5093791;28;20504;-57
2023/10/09 09:31:37;;;;;;;6.87;4.93;;;;;;;;;;5093757;28;20451;-58
2023/10/09 09:34:12;;;;;;;4.87;4.33;;;;;;;;;;5092927;28;20452;-58
2023/10/09 09:36:40;;;;;;;6.17;4.90;;;;;;;;;;5093321;28;20513;-58
2023/10/09 09:39:19;;;;;;;5.40;4.90;;;;;;;;;;5093640;28;20505;-58
2023/10/09 09:41:46;;;;;;;5.60;4.87;;;;;;;;;;5093535;28;20537;-57
2023/10/09 09:44:17;;;;;;;4.60;4.10;;;;;;;;;;5093704;28;20474;-58
2023/10/09 09:46:46;;;;;;;4.90;4.40;;;;;;;;;;5093320;28;20446;-57
2023/10/09 09:49:19;;;;;;;5.97;4.67;;;;;;;;;;5093203;28;20874;-57
2023/10/09 09:51:46;;;;;;;5.53;4.90;;;;;;;;;;5093435;28;20453;-58
2023/10/09 09:54:15;;;;;;;5.57;5.17;;;;;;;;;;5093301;28;20451;-58
2023/10/09 09:56:43;;;;;;;5.50;5.07;;;;;;;;;;5093114;28;20830;-58
2023/10/09 09:59:13;;;;;;;7.40;5.07;;;;;;;;;;5093138;28;20449;-57
2023/10/09 10:01:41;;;;;;;6.93;4.70;;;;;;;;;;5093023;28;20453;-57
2023/10/09 10:04:13;;;;;;;5.77;5.27;;;;;;;;;;5093070;28;20443;-57
2023/10/09 10:06:42;;;;;;;6.37;5.20;;;;;;;;;;5092881;28;20852;-58
2023/10/09 10:09:09;;;;;;;6.37;5.80;;;;;;;;;;5093041;28;20438;-58
2023/10/09 10:11:45;;;;;;;5.03;4.43;;;;;;;;;;5092876;28;20446;-59
2023/10/09 10:14:21;;;;;;;5.43;4.93;;;;;;;;;;5092723;28;20473;-58
2023/10/09 10:17:16;;;;;;;6.70;5.70;;;;;;;;;;5092969;28;20779;-58
2023/10/09 10:20:25;;;;;;;5.63;5.00;;;;;;;;;;5092963;28;20442;-57
2023/10/09 10:22:51;;;;;;;6.60;6.00;;;;;;;;;;5092644;28;21022;-58
2023/10/09 10:25:35;;;;;;;6.53;5.90;;;;;;;;;;5092817;28;20443;-58
2023/10/09 10:28:28;;;;;;;5.73;5.30;;;;;;;;;;5092742;28;20810;-57
2023/10/09 10:30:54;;;;;;;6.80;6.10;;;;;;;;;;5092641;28;20472;-58
2023/10/09 10:33:22;;;;;;;6.70;6.00;;;;;;;;;;5092889;28;20445;-59
2023/10/09 10:35:52;;;;;;;7.27;6.50;;;;;;;;;;5092817;28;20438;-58
2023/10/09 10:38:34;;;;;;;6.83;6.20;;;;;;;;;;5092659;28;20447;-59
2023/10/09 10:41:16;;;;;;;7.67;6.37;;;;;;;;;;5092766;28;20443;-58
2023/10/09 10:46:38;;;;;;;6.97;6.37;;;;;;;;;;5090707;28;20446;-58
2023/10/09 10:49:15;;;;;;;9.27;6.10;;;;;;;;;;5096677;28;20873;-58
2023/10/09 10:51:47;;;;;;;7.07;5.97;;;;;;;;;;5096538;28;20478;-58
2023/10/09 10:54:45;;;;;;;6.90;6.30;;;;;;;;;;5096801;28;20446;-58
2023/10/09 10:57:19;;;;;;;7.17;6.47;;;;;;;;;;5096439;28;20984;-56
2023/10/09 10:59:49;;;;;;;7.40;6.67;;;;;;;;;;5096439;28;20459;-58
2023/10/09 11:02:22;;;;;;;7.47;6.63;;;;;;;;;;5096609;28;20442;-58
2023/10/09 11:04:54;;;;;;;7.70;7.00;;;;;;;;;;5096529;28;20476;-58
2023/10/09 11:07:26;;;;;;;8.33;7.53;;;;;;;;;;5096236;28;20477;-58
2023/10/09 11:10:10;;;;;;;7.60;7.00;;;;;;;;;;5096291;28;20504;-58
2023/10/09 11:13:30;;;;;;;7.07;6.37;;;;;;;;;;5096141;28;20457;-59
2023/10/09 11:15:44;;;;;;;8.93;6.90;;;;;;;;;;5095955;28;20816;-58
2023/10/09 11:18:16;;;;;;;11.13;8.13;;;;;;;;;;5096093;28;20468;-58
2023/10/09 11:21:22;;;;;;;8.20;7.50;;;;;;;;;;5095964;28;20805;-58
2023/10/09 11:23:37;;;;;;;8.43;6.53;;;;;;;;;;5095836;28;20474;-57
2023/10/09 11:28:49;;;;;;;7.37;6.60;;;;;;;;;;5095786;28;20445;-58
2023/10/09 11:31:16;;;;;;;8.50;7.07;;;;;;;;;;5095635;28;20444;-58
2023/10/09 11:33:48;;;;;;;7.20;6.60;;;;;;;;;;5096020;28;20809;-57
2023/10/09 11:36:14;;;;;;;8.13;5.67;;;;;;;;;;5095621;28;20470;-57
2023/10/09 11:38:45;;;;;;;6.87;6.27;;;;;;;;;;5095707;28;20482;-58
2023/10/09 11:41:19;;;;;;;10.40;7.20;;;;;;;;;;5095777;28;20443;-58
2023/10/09 11:43:51;;;;;;;6.97;6.40;;;;;;;;;;5095661;28;20987;-58
2023/10/09 11:52:10;;;;;;;8.07;7.13;;;;;;;;;;5092971;28;20445;-57
2023/10/09 11:54:35;;;;;;;7.63;6.93;;;;;;;;;;5095277;28;20454;-59
2023/10/09 11:57:04;;;;;;;7.60;6.87;;;;;;;;;;5094828;28;20572;-58
2023/10/09 11:59:37;;;;;;;7.53;6.87;;;;;;;;;;5095411;28;20442;-58
2023/10/09 12:02:04;;;;;;;9.43;8.57;;;;;;;;;;5095350;28;20443;-58
2023/10/09 12:04:31;;;;;;;7.70;7.10;;;;;;;;;;5095159;28;20446;-58
2023/10/09 12:07:06;;;;;;;8.67;7.83;;;;;;;;;;5095192;28;20821;-58
2023/10/09 12:09:34;;;;;;;7.40;6.70;;;;;;;;;;5095315;28;20448;-58
2023/10/09 12:12:01;;;;;;;6.80;6.30;;;;;;;;;;5095109;28;20450;-58
2023/10/09 12:14:33;;;;;;;6.93;6.33;;;;;;;;;;5095068;28;20791;-58
2023/10/09 12:17:05;;;;;;;7.10;6.50;;;;;;;;;;5094843;28;20472;-58
2023/10/09 12:19:32;;;;;;;7.27;6.67;;;;;;;;;;5095129;28;20531;-58
2023/10/09 12:22:00;;;;;;;7.27;6.67;;;;;;;;;;5095028;28;20533;-58
2023/10/09 12:24:27;;;;;;;7.87;7.17;;;;;;;;;;5094757;28;20443;-57
2023/10/09 12:26:54;;;;;;;9.10;8.20;;;;;;;;;;5094688;28;20480;-58
2023/10/09 12:29:21;;;;;;;7.60;7.00;;;;;;;;;;5094707;28;20443;-58
2023/10/09 12:31:57;;;;;;;8.33;7.17;;;;;;;;;;5094581;28;20534;-58
2023/10/09 12:34:26;;;;;;;6.17;5.73;;;;;;;;;;5094703;28;20438;-58
2023/10/09 12:36:53;;;;;;;6.80;6.13;;;;;;;;;;5094553;28;20881;-58
2023/10/09 12:39:21;;;;;;;7.30;6.70;;;;;;;;;;5094493;28;20500;-58
2023/10/09 12:41:48;;;;;;;6.87;6.20;;;;;;;;;;5094528;28;20450;-58
2023/10/09 12:44:15;;;;;;;5.87;5.37;;;;;;;;;;5094318;28;20450;-58
2023/10/09 12:46:51;;;;;;;7.10;6.43;;;;;;;;;;5094576;28;20457;-58
2023/10/09 12:49:24;;;;;;;7.47;6.10;;;;;;;;;;5094539;28;20450;-58
2023/10/09 12:51:51;;;;;;;7.00;6.30;;;;;;;;;;5094424;28;20457;-58
2023/10/09 12:54:20;;;;;;;6.20;5.70;;;;;;;;;;5094222;28;20885;-58
2023/10/09 12:56:48;;;;;;;6.47;5.17;;;;;;;;;;5094022;28;20482;-58
2023/10/09 12:59:19;;;;;;;6.13;5.63;;;;;;;;;;5094412;28;20442;-58
2023/10/09 13:01:51;;;;;;;6.70;5.90;;;;;;;;;;5094194;28;20959;-58
2023/10/09 13:04:22;;;;;;;6.40;4.90;;;;;;;;;;5094198;28;20439;-58
2023/10/09 13:06:53;;;;;;;5.90;5.43;;;;;;;;;;5093632;28;20960;-56
2023/10/09 13:09:32;;;;;;;4.27;3.97;;;;;;;;;;5093293;28;20467;-58
2023/10/09 13:12:00;;;;;;;5.50;5.00;;;;;;;;;;5094093;28;20445;-58
2023/10/09 13:14:27;;;;;;;4.97;4.57;;;;;;;;;;5093947;28;20446;-58
2023/10/09 13:16:54;;;;;;;10.93;5.27;;;;;;;;;;5093786;28;20879;-58
2023/10/09 13:19:24;;;;;;;8.40;4.10;;;;;;;;;;5093769;28;21007;-59
2023/10/09 13:21:51;;;;;;;5.83;5.20;;;;;;;;;;5093922;28;20447;-58
2023/10/09 13:24:20;;;;;;;6.60;5.10;;;;;;;;;;5093807;28;20447;-58
2023/10/09 13:26:51;;;;;;;5.67;5.17;;;;;;;;;;5093673;28;20446;-57
2023/10/09 13:29:22;;;;;;;4.73;4.40;;;;;;;;;;5093626;28;20451;-59
2023/10/09 13:31:52;;;;;;;5.90;5.30;;;;;;;;;;5093995;28;20455;-58
2023/10/09 13:34:19;;;;;;;7.23;5.43;;;;;;;;;;5094053;28;20492;-58
2023/10/09 13:36:52;;;;;;;5.33;4.83;;;;;;;;;;5093569;28;20519;-58
2023/10/09 13:39:24;;;;;;;5.20;4.70;;;;;;;;;;5093598;28;20454;-58
2023/10/09 13:41:57;;;;;;;6.10;4.50;;;;;;;;;;5093401;28;20443;-58
2023/10/09 13:44:26;;;;;;;5.10;4.60;;;;;;;;;;5093202;28;20449;-59
2023/10/09 13:46:53;;;;;;;5.07;4.50;;;;;;;;;;5092908;28;21002;-58
2023/10/09 13:49:22;;;;;;;5.60;5.10;;;;;;;;;;5093342;28;20523;-58
2023/10/09 13:51:51;;;;;;;7.33;4.73;;;;;;;;;;5093142;28;20941;-58
2023/10/09 13:54:28;;;;;;;5.40;4.87;;;;;;;;;;5093225;28;20485;-59
2023/10/09 13:56:55;;;;;;;5.40;4.90;;;;;;;;;;5093010;28;20793;-58
2023/10/09 13:59:23;;;;;;;4.73;4.10;;;;;;;;;;5093059;28;20438;-58
2023/10/09 14:01:50;;;;;;;6.87;6.17;;;;;;;;;;5093246;28;20449;-58
2023/10/09 14:04:19;;;;;;;5.97;5.20;;;;;;;;;;5093147;28;20521;-58
2023/10/09 14:06:47;;;;;;;5.40;4.93;;;;;;;;;;5092810;28;20499;-58
2023/10/09 14:09:30;;;;;;;4.60;4.23;;;;;;;;;;5093045;28;20982;-58
2023/10/09 14:12:05;;;;;;;4.67;4.37;;;;;;;;;;5093231;28;20500;-58
2023/10/09 14:14:33;;;;;;;4.93;4.53;;;;;;;;;;5093112;28;20481;-58
2023/10/09 14:17:00;;;;;;;6.87;4.40;;;;;;;;;;5092846;28;20478;-58
2023/10/09 14:19:27;;;;;;;5.00;4.60;;;;;;;;;;5092655;28;20446;-58
2023/10/09 14:21:54;;;;;;;4.50;4.10;;;;;;;;;;5092812;28;20533;-59
2023/10/09 14:24:26;;;;;;;4.03;3.83;;;;;;;;;;5093172;28;20478;-58
2023/10/09 14:26:56;;;;;;;4.60;4.20;;;;;;;;;;5092924;28;20485;-58
2023/10/09 14:29:26;;;;;;;4.80;4.40;;;;;;;;;;5092929;28;20449;-58
2023/10/09 14:32:00;;;;;;;5.80;4.90;;;;;;;;;;5092953;28;20450;-58
2023/10/09 14:34:32;;;;;;;4.93;4.00;;;;;;;;;;5092855;28;20453;-59
2023/10/09 14:37:00;;;;;;;5.00;4.50;;;;;;;;;;5092986;28;20489;-59
2023/10/09 14:39:29;;;;;;;4.70;4.30;;;;;;;;;;5092824;28;20457;-58
2023/10/09 14:41:57;;;;;;;4.70;4.30;;;;;;;;;;5092777;28;20443;-57
2023/10/09 14:44:24;;;;;;;4.40;4.10;;;;;;;;;;5092829;28;20446;-57
2023/10/09 14:46:51;;;;;;;5.47;4.87;;;;;;;;;;5092672;28;20500;-58
2023/10/09 14:49:21;;;;;;;4.53;4.13;;;;;;;;;;5092648;28;20475;-58
2023/10/09 14:51:48;;;;;;;6.40;4.70;;;;;;;;;;5092862;28;20447;-58
2023/10/09 14:54:17;;;;;;;5.13;4.63;;;;;;;;;;5092734;28;20881;-58
2023/10/09 14:56:46;;;;;;;4.70;4.30;;;;;;;;;;5092680;28;20446;-57
2023/10/09 14:59:13;;;;;;;4.60;4.20;;;;;;;;;;5092520;28;20891;-58
2023/10/09 15:01:40;;;;;;;6.60;4.70;;;;;;;;;;5092499;28;20478;-58
2023/10/09 15:04:10;;;;;;;4.73;4.30;;;;;;;;;;5092650;28;20446;-59
2023/10/09 15:06:39;;;;;;;4.67;4.20;;;;;;;;;;5092528;28;20439;-58
2023/10/09 15:09:09;;;;;;;4.90;4.60;;;;;;;;;;5092603;28;20780;-59
2023/10/09 15:11:38;;;;;;;5.17;4.77;;;;;;;;;;5092445;28;20443;-58
2023/10/09 15:14:06;;;;;;;4.90;4.30;;;;;;;;;;5092366;28;20442;-58
2023/10/09 15:16:34;;;;;;;3.80;3.50;;;;;;;;;;5092395;28;20453;-58
2023/10/09 15:19:02;;;;;;;6.13;4.60;;;;;;;;;;5092511;28;20514;-58
2023/10/09 15:21:32;;;;;;;4.33;4.03;;;;;;;;;;5092407;28;20449;-58
2023/10/09 15:23:59;;;;;;;5.40;4.90;;;;;;;;;;5092473;28;20443;-58
2023/10/09 15:26:32;;;;;;;5.13;4.00;;;;;;;;;;5092387;28;20454;-59
2023/10/09 15:29:00;;;;;;;4.70;4.10;;;;;;;;;;5092248;28;20470;-58
2023/10/09 15:31:30;;;;;;;5.30;4.67;;;;;;;;;;5092541;28;20439;-58
2023/10/09 15:33:57;;;;;;;5.50;5.10;;;;;;;;;;5095991;28;20881;-58
2023/10/09 15:36:28;;;;;;;3.80;3.50;;;;;;;;;;5095956;28;20439;-57
2023/10/09 15:38:59;;;;;;;4.93;4.40;;;;;;;;;;5095774;28;20485;-58
2023/10/09 15:41:29;;;;;;;5.07;4.67;;;;;;;;;;5096024;28;20449;-58
2023/10/09 15:43:57;;;;;;;4.90;4.40;;;;;;;;;;5095860;28;20529;-58
2023/10/09 15:46:23;;;;;;;4.60;4.30;;;;;;;;;;5095695;28;20520;-58
2023/10/09 15:48:53;;;;;;;4.87;4.50;;;;;;;;;;5095676;28;20870;-58
2023/10/09 15:51:21;;;;;;;4.87;4.47;;;;;;;;;;5095637;28;20434;-58
2023/10/09 15:53:50;;;;;;;4.80;4.40;;;;;;;;;;5095495;28;20451;-58